Forside
METAR-TAF:

METAR-TAF

Lufthavne :

Yellowstone Airport

West Yellowstone, Montana, USA

Breddekreds: 44-39N, længdekreds: 111-06W, højde: 2031 m

Aktuelle vejr

Denne rapport blev lavet for 17 minutter siden, kl. 16:35 UTC
Vind stille
Temperatur 1°C
Fugtighed 86%
Tryk 1021 hPa
Sigt: 16.1 km
Spredte skyer i en højde af 2400 ft
Spredte skyer i en højde af 9000 ft

METAR: KWYS 231635Z AUTO 00000KT 10SM SCT024 SCT090 01/M01 A3015 RMK AO2

Tid: 10:52 (16:52 UTC)


TAF: fraværende

Vejrobservationer og prognoser fra mere end 4000 lufthavne (METAR og TAF).

De gule og røde prikker repræsenterer de meteorologiske stationer.

Flyt musen over at se navnet på stationen.

Så klik over at se vejr observationer og prognoser.

At skifte det kort: Klik på de grønne knapper med et sort kors for at zoome ind; på den grønne knap med en bindestreg for at zoome ud; eller på de grønne pile for tilstødende kort.


METAR-TAF: